Airfield :







YOU CAN JOIN US ON...

 
LOGIN :

Register | Disclaimer

   EN    FR    IT 

 









Legend :    VFR   Marginal VFR   IFR   Intensive IFR   Very Intensive IFR
Visi :
Ceiling :
>= 8 km
>= 3000ft
5 to 8 km
1000 to 3000 ft
1500m to 5 km
500 to 1000 ft
800 to 1500m
200 to 500 ft
< 800m
< 200 ft
Symbols :   Thunderstorms  Fog  Heavy snow  Heavy precipitations  Wind > 20 kt






- Airport Elevation : 124 ft
- IATA code : YGV


CYGV - Havre St Pierre

CURRENT METAR :
  • 131400Z AUTO 25009KT 9SM CLR 22/17 A2993 RMK SLP136 DENSITY ALT 900FT

EXPIRED METARs :
  • 131300Z AUTO 27007KT 220V290 9SM CLR 20/17 A2993 RMK SLP136 DENSITY ALT 600FT
  • 131200Z AUTO VRB02KT 9SM CLR 19/18 A2991 RMK SLP132 DENSITY ALT 600FT

TAF TAF CYGV
Valid from the 13 at 14:00 until the 14 at 02:00 UTC


131338Z 1314/1402 27007KT P6SM SKC
BECMG 1315/1317 25015KT
FM132100 26012KT P6SM BKN040
TEMPO 1321/1402 P6SM -SHRA
PROB30 1323/1402 2SM TSRA BR BKN020 OVC040CB RMK FCST BASED ON AUTO OBS. NXT FCST BY 132000Z
CZUL FIR / North America



MET'MAP, your aeronautical weather chart ! - Copyright ORBIFLY December 2007 - Disclaimer

ORBIFLY MET'MAP TEAM :

Programming & Development : Alexandra Zaïnal
Concept & original design : Baudouin d'Aumeries
Assistance for programming : Marc-Olivier Méhu
Technical & hardware support : Manuel Goepfert

Contact : metmap@orbifly.com




SOURCES & CREDITS :

   NOAA